The Dalles, Oregon
Current Conditions -  °F | °C
As of 6:53 PM on Monday 20 Oct 2014 (Local Time) from KDLS Reporting Station
Broken Clouds Broken Clouds  
Wind Chill: 55°   Ceiling: 6000
Heat Index: 55°   Visibility: 10mi
Dew Point: 52°   Wind: 3mph
Humidity: 89%   Direction: 320°NW
Pressure: 29.81"   Gusts: NA
Location:  45.61°N, 121.17°W
Report Text: KDLS 210153Z AUTO 32003KT 10SM BKN060 13/11 A2981 RMK AO2 SLP093 T01280111
Loading
Personal Weather Stations






























Interactive Weather Map
Tropical Storm Tracking
New forecast layout! Learn more

10-Day Weather Forecast

Advertisements
Track Severe Weather on mobile